Airfield :
LOGIN :

Register | Disclaimer

   EN    FR    IT 

 










Legend :    VFR   Marginal VFR   IFR   Intensive IFR   Very Intensive IFR
Visi :
Ceiling :
>= 8 km
>= 3000ft
5 to 8 km
1000 to 3000 ft
1500m to 5 km
500 to 1000 ft
800 to 1500m
200 to 500 ft
< 800m
< 200 ft
Symbols :   Thunderstorms  Fog  Heavy snow  Heavy precipitations  Wind > 20 kt
SIGMETs :     Misc.  Thunderstorms  Icing  Turbulence  Mountain Waves  Volcanic Ashes






- Airport Elevation : -11 ft
- IATA code : AMS


EHAM - Amsterdam Schiphol

CURRENT METAR :
  • 050155Z 18007KT CAVOK 15/11 Q1014 NOSIG

EXPIRED METARs :
  • 050125Z 19008KT CAVOK 15/12 Q1014 NOSIG
  • 050055Z 18009KT 150V210 CAVOK 16/12 Q1014 NOSIG
  • 050025Z 18010KT CAVOK 16/11 Q1014 NOSIG
  • 042355Z 18008KT CAVOK 16/11 Q1014 NOSIG
  • 042325Z 18007KT CAVOK 17/11 Q1015 NOSIG

TAF TAF EHAM
Valid from the 05 at 00:00 until the 06 at 06:00 UTC


042255Z 0500/0606 19007KT CAVOK
BECMG 0505/0508 22012KT
BECMG 0516/0519 VRB03KT



MET'MAP, your aeronautical weather chart ! - Copyright ORBIFLY December 2007 - Disclaimer

ORBIFLY MET'MAP TEAM :

Programming & Development : Alexandra Zaïnal
Concept & original design : Baudouin d'Aumeries
Assistance for programming : Marc-Olivier Méhu
Technical & hardware support : Manuel Goepfert

Contact : metmap@orbifly.com




SOURCES & CREDITS :

   NOAA